sensor_id;sensor_type;location;lat;lon;timestamp;P1;durP1;ratioP1;P2;durP2;ratioP2
81801;SDS011;71199;52.490;5.448;2023-08-06T00:00:21;14.33;;;10.60;;
81801;SDS011;71199;52.490;5.448;2023-08-06T00:02:48;19.30;;;11.60;;
81801;SDS011;71199;52.490;5.448;2023-08-06T00:05:13;19.30;;;11.05;;
81801;SDS011;71199;52.490;5.448;2023-08-06T00:07:43;14.75;;;10.07;;
81801;SDS011;71199;52.490;5.448;2023-08-06T00:10:11;15.52;;;10.85;;
81801;SDS011;71199;52.490;5.448;2023-08-06T00:12:36;18.60;;;11.48;;
81801;SDS011;71199;52.490;5.448;2023-08-06T00:15:02;17.95;;;11.05;;
81801;SDS011;71199;52.490;5.448;2023-08-06T00:17:27;14.10;;;10.45;;
81801;SDS011;71199;52.490;5.448;2023-08-06T00:19:53;18.03;;;11.87;;
81801;SDS011;71199;52.490;5.448;2023-08-06T00:22:18;16.70;;;11.35;;
81801;SDS011;71199;52.490;5.448;2023-08-06T00:24:43;17.43;;;11.77;;
81801;SDS011;71199;52.490;5.448;2023-08-06T00:27:09;16.52;;;11.63;;
81801;SDS011;71199;52.490;5.448;2023-08-06T00:29:34;21.42;;;11.57;;
81801;SDS011;71199;52.490;5.448;2023-08-06T00:31:59;18.53;;;12.40;;
81801;SDS011;71199;52.490;5.448;2023-08-06T00:34:25;17.33;;;11.03;;
81801;SDS011;71199;52.490;5.448;2023-08-06T00:36:50;20.15;;;12.80;;
81801;SDS011;71199;52.490;5.448;2023-08-06T00:39:16;20.33;;;12.33;;
81801;SDS011;71199;52.490;5.448;2023-08-06T00:41:41;19.00;;;12.03;;
81801;SDS011;71199;52.490;5.448;2023-08-06T00:44:06;19.13;;;12.60;;
81801;SDS011;71199;52.490;5.448;2023-08-06T00:46:32;20.20;;;13.50;;
81801;SDS011;71199;52.490;5.448;2023-08-06T00:48:58;21.63;;;13.35;;
81801;SDS011;71199;52.490;5.448;2023-08-06T00:51:24;23.08;;;13.52;;
81801;SDS011;71199;52.490;5.448;2023-08-06T00:53:50;18.23;;;12.07;;
81801;SDS011;71199;52.490;5.448;2023-08-06T00:56:17;20.00;;;13.02;;
81801;SDS011;71199;52.490;5.448;2023-08-06T00:58:44;24.63;;;14.70;;
81801;SDS011;71199;52.490;5.448;2023-08-06T01:01:10;22.25;;;14.32;;
81801;SDS011;71199;52.490;5.448;2023-08-06T01:03:36;21.45;;;14.23;;
81801;SDS011;71199;52.490;5.448;2023-08-06T01:06:01;23.47;;;15.57;;
81801;SDS011;71199;52.490;5.448;2023-08-06T01:13:49;21.58;;;12.95;;
81801;SDS011;71199;52.490;5.448;2023-08-06T01:16:20;27.92;;;14.93;;
81801;SDS011;71199;52.490;5.448;2023-08-06T01:18:49;24.52;;;15.35;;
81801;SDS011;71199;52.490;5.448;2023-08-06T01:21:17;26.38;;;14.80;;
81801;SDS011;71199;52.490;5.448;2023-08-06T01:23:44;26.25;;;15.63;;
81801;SDS011;71199;52.490;5.448;2023-08-06T01:29:06;27.13;;;14.77;;
81801;SDS011;71199;52.490;5.448;2023-08-06T01:31:37;26.17;;;14.50;;
81801;SDS011;71199;52.490;5.448;2023-08-06T01:34:13;23.40;;;15.30;;
81801;SDS011;71199;52.490;5.448;2023-08-06T01:36:42;24.90;;;14.75;;
81801;SDS011;71199;52.490;5.448;2023-08-06T01:39:08;25.33;;;15.57;;
81801;SDS011;71199;52.490;5.448;2023-08-06T01:41:34;23.85;;;16.00;;
81801;SDS011;71199;52.490;5.448;2023-08-06T01:43:59;23.70;;;15.10;;
81801;SDS011;71199;52.490;5.448;2023-08-06T01:46:25;29.88;;;15.52;;
81801;SDS011;71199;52.490;5.448;2023-08-06T01:48:50;26.60;;;15.60;;
81801;SDS011;71199;52.490;5.448;2023-08-06T01:51:16;23.90;;;15.90;;
81801;SDS011;71199;52.490;5.448;2023-08-06T01:53:41;27.70;;;15.43;;
81801;SDS011;71199;52.490;5.448;2023-08-06T01:56:06;31.35;;;16.50;;
81801;SDS011;71199;52.490;5.448;2023-08-06T01:58:32;27.10;;;15.73;;
81801;SDS011;71199;52.490;5.448;2023-08-06T02:00:57;26.27;;;15.77;;
81801;SDS011;71199;52.490;5.448;2023-08-06T02:03:22;40.33;;;17.43;;
81801;SDS011;71199;52.490;5.448;2023-08-06T02:05:48;30.02;;;15.65;;
81801;SDS011;71199;52.490;5.448;2023-08-06T02:08:13;26.05;;;16.15;;
81801;SDS011;71199;52.490;5.448;2023-08-06T02:10:39;27.77;;;15.80;;
81801;SDS011;71199;52.490;5.448;2023-08-06T02:13:04;26.13;;;15.50;;
81801;SDS011;71199;52.490;5.448;2023-08-06T02:15:29;23.10;;;15.47;;
81801;SDS011;71199;52.490;5.448;2023-08-06T02:17:55;26.15;;;15.43;;
81801;SDS011;71199;52.490;5.448;2023-08-06T02:20:20;26.63;;;16.27;;
81801;SDS011;71199;52.490;5.448;2023-08-06T02:22:46;25.33;;;15.82;;
81801;SDS011;71199;52.490;5.448;2023-08-06T02:25:11;22.63;;;13.87;;
81801;SDS011;71199;52.490;5.448;2023-08-06T02:27:37;22.27;;;14.47;;
81801;SDS011;71199;52.490;5.448;2023-08-06T02:30:02;23.63;;;14.73;;
81801;SDS011;71199;52.490;5.448;2023-08-06T02:32:29;24.50;;;13.13;;
81801;SDS011;71199;52.490;5.448;2023-08-06T02:37:21;23.83;;;14.27;;
81801;SDS011;71199;52.490;5.448;2023-08-06T02:39:47;22.73;;;14.15;;
81801;SDS011;71199;52.490;5.448;2023-08-06T02:42:12;23.63;;;14.07;;
81801;SDS011;71199;52.490;5.448;2023-08-06T02:44:38;26.60;;;15.27;;
81801;SDS011;71199;52.490;5.448;2023-08-06T02:47:03;26.23;;;14.70;;
81801;SDS011;71199;52.490;5.448;2023-08-06T02:49:29;22.88;;;14.55;;
81801;SDS011;71199;52.490;5.448;2023-08-06T02:51:54;26.37;;;17.27;;
81801;SDS011;71199;52.490;5.448;2023-08-06T02:54:20;24.65;;;15.02;;
81801;SDS011;71199;52.490;5.448;2023-08-06T02:56:45;25.40;;;15.10;;
81801;SDS011;71199;52.490;5.448;2023-08-06T02:59:11;24.80;;;16.13;;
81801;SDS011;71199;52.490;5.448;2023-08-06T03:01:37;25.13;;;15.48;;
81801;SDS011;71199;52.490;5.448;2023-08-06T03:04:03;24.37;;;15.83;;
81801;SDS011;71199;52.490;5.448;2023-08-06T03:06:28;22.50;;;14.27;;
81801;SDS011;71199;52.490;5.448;2023-08-06T03:08:54;28.42;;;16.20;;
81801;SDS011;71199;52.490;5.448;2023-08-06T03:11:19;29.35;;;15.68;;
81801;SDS011;71199;52.490;5.448;2023-08-06T03:13:44;22.70;;;14.60;;
81801;SDS011;71199;52.490;5.448;2023-08-06T03:16:10;25.17;;;16.03;;
81801;SDS011;71199;52.490;5.448;2023-08-06T03:18:35;26.77;;;16.63;;
81801;SDS011;71199;52.490;5.448;2023-08-06T03:21:00;28.30;;;15.77;;
81801;SDS011;71199;52.490;5.448;2023-08-06T03:23:26;24.17;;;14.98;;
81801;SDS011;71199;52.490;5.448;2023-08-06T03:25:51;23.08;;;15.38;;
81801;SDS011;71199;52.490;5.448;2023-08-06T03:28:16;29.17;;;16.17;;
81801;SDS011;71199;52.490;5.448;2023-08-06T03:30:42;25.08;;;15.85;;
81801;SDS011;71199;52.490;5.448;2023-08-06T03:33:07;27.02;;;15.57;;
81801;SDS011;71199;52.490;5.448;2023-08-06T03:35:33;25.30;;;15.40;;
81801;SDS011;71199;52.490;5.448;2023-08-06T03:37:58;29.35;;;15.85;;
81801;SDS011;71199;52.490;5.448;2023-08-06T03:40:23;27.90;;;15.90;;
81801;SDS011;71199;52.490;5.448;2023-08-06T03:42:49;26.65;;;15.57;;
81801;SDS011;71199;52.490;5.448;2023-08-06T03:45:14;26.27;;;15.63;;
81801;SDS011;71199;52.490;5.448;2023-08-06T03:47:40;31.10;;;16.15;;
81801;SDS011;71199;52.490;5.448;2023-08-06T03:50:06;27.38;;;15.95;;
81801;SDS011;71199;52.490;5.448;2023-08-06T03:52:31;24.30;;;15.73;;
81801;SDS011;71199;52.490;5.448;2023-08-06T03:54:57;26.40;;;15.60;;
81801;SDS011;71199;52.490;5.448;2023-08-06T03:57:22;27.45;;;16.50;;
81801;SDS011;71199;52.490;5.448;2023-08-06T03:59:47;27.63;;;15.87;;
81801;SDS011;71199;52.490;5.448;2023-08-06T04:02:13;27.38;;;15.63;;
81801;SDS011;71199;52.490;5.448;2023-08-06T04:04:38;28.10;;;16.03;;
81801;SDS011;71199;52.490;5.448;2023-08-06T04:07:03;26.43;;;14.07;;
81801;SDS011;71199;52.490;5.448;2023-08-06T04:09:29;26.73;;;15.55;;
81801;SDS011;71199;52.490;5.448;2023-08-06T04:11:54;23.15;;;14.27;;
81801;SDS011;71199;52.490;5.448;2023-08-06T04:14:20;27.20;;;15.00;;
81801;SDS011;71199;52.490;5.448;2023-08-06T04:16:45;26.53;;;15.63;;
81801;SDS011;71199;52.490;5.448;2023-08-06T04:19:10;23.40;;;14.40;;
81801;SDS011;71199;52.490;5.448;2023-08-06T04:21:36;23.90;;;13.63;;
81801;SDS011;71199;52.490;5.448;2023-08-06T04:24:01;28.13;;;14.80;;
81801;SDS011;71199;52.490;5.448;2023-08-06T04:26:27;22.65;;;13.75;;
81801;SDS011;71199;52.490;5.448;2023-08-06T04:28:52;23.45;;;12.82;;
81801;SDS011;71199;52.490;5.448;2023-08-06T04:31:17;21.33;;;12.63;;
81801;SDS011;71199;52.490;5.448;2023-08-06T04:33:43;22.15;;;12.77;;
81801;SDS011;71199;52.490;5.448;2023-08-06T04:36:08;24.35;;;13.63;;
81801;SDS011;71199;52.490;5.448;2023-08-06T04:38:34;18.07;;;12.10;;
81801;SDS011;71199;52.490;5.448;2023-08-06T04:40:59;24.35;;;13.77;;
81801;SDS011;71199;52.490;5.448;2023-08-06T04:43:24;19.40;;;13.17;;
81801;SDS011;71199;52.490;5.448;2023-08-06T04:45:50;22.80;;;13.68;;
81801;SDS011;71199;52.490;5.448;2023-08-06T04:48:18;20.42;;;12.57;;
81801;SDS011;71199;52.490;5.448;2023-08-06T04:50:44;23.70;;;12.85;;
81801;SDS011;71199;52.490;5.448;2023-08-06T04:53:10;27.30;;;14.75;;
81801;SDS011;71199;52.490;5.448;2023-08-06T04:55:36;20.83;;;13.02;;
81801;SDS011;71199;52.490;5.448;2023-08-06T04:58:01;23.17;;;12.80;;
81801;SDS011;71199;52.490;5.448;2023-08-06T05:00:26;19.20;;;12.00;;
81801;SDS011;71199;52.490;5.448;2023-08-06T05:02:52;22.75;;;13.40;;
81801;SDS011;71199;52.490;5.448;2023-08-06T05:05:17;20.73;;;13.47;;
81801;SDS011;71199;52.490;5.448;2023-08-06T05:07:43;20.93;;;13.60;;
81801;SDS011;71199;52.490;5.448;2023-08-06T05:10:08;17.97;;;12.70;;
81801;SDS011;71199;52.490;5.448;2023-08-06T05:12:34;21.63;;;12.27;;
81801;SDS011;71199;52.490;5.448;2023-08-06T05:14:59;19.67;;;12.47;;
81801;SDS011;71199;52.490;5.448;2023-08-06T05:17:24;28.57;;;13.50;;
81801;SDS011;71199;52.490;5.448;2023-08-06T05:19:50;20.88;;;13.27;;
81801;SDS011;71199;52.490;5.448;2023-08-06T05:22:15;20.25;;;13.60;;
81801;SDS011;71199;52.490;5.448;2023-08-06T05:24:41;20.80;;;12.63;;
81801;SDS011;71199;52.490;5.448;2023-08-06T05:27:06;22.97;;;13.60;;
81801;SDS011;71199;52.490;5.448;2023-08-06T05:29:31;21.10;;;12.33;;
81801;SDS011;71199;52.490;5.448;2023-08-06T05:31:57;22.55;;;12.88;;
81801;SDS011;71199;52.490;5.448;2023-08-06T05:34:22;19.30;;;12.77;;
81801;SDS011;71199;52.490;5.448;2023-08-06T05:36:47;21.58;;;13.05;;
81801;SDS011;71199;52.490;5.448;2023-08-06T05:39:13;20.10;;;13.65;;
81801;SDS011;71199;52.490;5.448;2023-08-06T05:41:38;25.67;;;14.80;;
81801;SDS011;71199;52.490;5.448;2023-08-06T05:44:04;21.98;;;13.32;;
81801;SDS011;71199;52.490;5.448;2023-08-06T05:46:29;21.83;;;13.20;;
81801;SDS011;71199;52.490;5.448;2023-08-06T05:48:54;19.30;;;13.13;;
81801;SDS011;71199;52.490;5.448;2023-08-06T05:51:20;21.45;;;13.35;;
81801;SDS011;71199;52.490;5.448;2023-08-06T05:53:45;24.70;;;13.60;;
81801;SDS011;71199;52.490;5.448;2023-08-06T05:56:11;20.20;;;13.05;;
81801;SDS011;71199;52.490;5.448;2023-08-06T05:58:37;22.10;;;13.77;;
81801;SDS011;71199;52.490;5.448;2023-08-06T06:01:02;23.10;;;13.90;;
81801;SDS011;71199;52.490;5.448;2023-08-06T06:03:28;20.27;;;13.90;;
81801;SDS011;71199;52.490;5.448;2023-08-06T06:05:53;21.48;;;13.15;;
81801;SDS011;71199;52.490;5.448;2023-08-06T06:08:19;22.10;;;13.30;;
81801;SDS011;71199;52.490;5.448;2023-08-06T06:10:44;19.50;;;12.07;;
81801;SDS011;71199;52.490;5.448;2023-08-06T06:13:09;22.10;;;14.63;;
81801;SDS011;71199;52.490;5.448;2023-08-06T06:15:35;22.97;;;12.87;;
81801;SDS011;71199;52.490;5.448;2023-08-06T06:18:00;20.40;;;12.90;;
81801;SDS011;71199;52.490;5.448;2023-08-06T06:20:25;19.07;;;13.20;;
81801;SDS011;71199;52.490;5.448;2023-08-06T06:22:51;20.60;;;12.80;;
81801;SDS011;71199;52.490;5.448;2023-08-06T06:25:16;23.63;;;13.38;;
81801;SDS011;71199;52.490;5.448;2023-08-06T06:27:41;19.90;;;12.63;;
81801;SDS011;71199;52.490;5.448;2023-08-06T06:30:07;16.07;;;12.43;;
81801;SDS011;71199;52.490;5.448;2023-08-06T06:32:33;19.45;;;13.20;;
81801;SDS011;71199;52.490;5.448;2023-08-06T06:34:59;19.88;;;12.38;;
81801;SDS011;71199;52.490;5.448;2023-08-06T06:37:24;19.50;;;12.70;;
81801;SDS011;71199;52.490;5.448;2023-08-06T06:39:50;21.37;;;13.00;;
81801;SDS011;71199;52.490;5.448;2023-08-06T06:42:15;17.17;;;11.57;;
81801;SDS011;71199;52.490;5.448;2023-08-06T06:44:41;18.98;;;12.32;;
81801;SDS011;71199;52.490;5.448;2023-08-06T06:47:06;19.90;;;13.35;;
81801;SDS011;71199;52.490;5.448;2023-08-06T06:49:32;21.23;;;13.05;;
81801;SDS011;71199;52.490;5.448;2023-08-06T06:51:57;19.30;;;12.43;;
81801;SDS011;71199;52.490;5.448;2023-08-06T06:54:23;19.70;;;12.90;;
81801;SDS011;71199;52.490;5.448;2023-08-06T06:56:48;19.87;;;12.77;;
81801;SDS011;71199;52.490;5.448;2023-08-06T06:59:13;18.05;;;12.00;;
81801;SDS011;71199;52.490;5.448;2023-08-06T07:01:39;17.55;;;12.30;;
81801;SDS011;71199;52.490;5.448;2023-08-06T07:04:04;16.50;;;11.73;;
81801;SDS011;71199;52.490;5.448;2023-08-06T07:06:30;18.73;;;12.02;;
81801;SDS011;71199;52.490;5.448;2023-08-06T07:08:56;17.42;;;11.82;;
81801;SDS011;71199;52.490;5.448;2023-08-06T07:11:21;18.10;;;11.93;;
81801;SDS011;71199;52.490;5.448;2023-08-06T07:13:47;19.30;;;12.93;;
81801;SDS011;71199;52.490;5.448;2023-08-06T07:16:12;18.67;;;11.93;;
81801;SDS011;71199;52.490;5.448;2023-08-06T07:18:37;16.53;;;11.23;;
81801;SDS011;71199;52.490;5.448;2023-08-06T07:21:03;18.35;;;12.93;;
81801;SDS011;71199;52.490;5.448;2023-08-06T07:23:28;17.95;;;12.63;;
81801;SDS011;71199;52.490;5.448;2023-08-06T07:25:54;19.63;;;12.30;;
81801;SDS011;71199;52.490;5.448;2023-08-06T07:28:19;20.20;;;13.20;;
81801;SDS011;71199;52.490;5.448;2023-08-06T07:30:45;21.45;;;12.38;;
81801;SDS011;71199;52.490;5.448;2023-08-06T07:33:10;19.95;;;12.95;;
81801;SDS011;71199;52.490;5.448;2023-08-06T07:35:37;16.25;;;12.38;;
81801;SDS011;71199;52.490;5.448;2023-08-06T07:38:02;16.95;;;11.13;;
81801;SDS011;71199;52.490;5.448;2023-08-06T07:40:28;18.30;;;11.57;;
81801;SDS011;71199;52.490;5.448;2023-08-06T07:42:53;17.67;;;11.88;;
81801;SDS011;71199;52.490;5.448;2023-08-06T07:45:19;19.95;;;12.15;;
81801;SDS011;71199;52.490;5.448;2023-08-06T07:47:45;17.98;;;11.95;;
81801;SDS011;71199;52.490;5.448;2023-08-06T07:50:10;20.80;;;12.77;;
81801;SDS011;71199;52.490;5.448;2023-08-06T07:52:36;14.63;;;10.73;;
81801;SDS011;71199;52.490;5.448;2023-08-06T07:55:01;18.67;;;13.25;;
81801;SDS011;71199;52.490;5.448;2023-08-06T07:57:30;17.98;;;12.68;;
81801;SDS011;71199;52.490;5.448;2023-08-06T07:59:56;19.25;;;13.48;;
81801;SDS011;71199;52.490;5.448;2023-08-06T08:02:21;19.63;;;12.73;;
81801;SDS011;71199;52.490;5.448;2023-08-06T08:04:46;17.45;;;12.57;;
81801;SDS011;71199;52.490;5.448;2023-08-06T08:07:12;18.88;;;13.10;;
81801;SDS011;71199;52.490;5.448;2023-08-06T08:09:38;19.77;;;13.00;;
81801;SDS011;71199;52.490;5.448;2023-08-06T08:12:04;17.25;;;11.75;;
81801;SDS011;71199;52.490;5.448;2023-08-06T08:14:29;15.50;;;11.82;;
81801;SDS011;71199;52.490;5.448;2023-08-06T08:17:00;15.52;;;11.60;;
81801;SDS011;71199;52.490;5.448;2023-08-06T08:19:27;16.10;;;11.80;;
81801;SDS011;71199;52.490;5.448;2023-08-06T08:21:53;16.45;;;12.02;;
81801;SDS011;71199;52.490;5.448;2023-08-06T08:24:19;16.77;;;12.23;;
81801;SDS011;71199;52.490;5.448;2023-08-06T08:26:44;17.73;;;12.63;;
81801;SDS011;71199;52.490;5.448;2023-08-06T08:29:10;15.15;;;11.85;;
81801;SDS011;71199;52.490;5.448;2023-08-06T08:31:35;17.75;;;12.05;;
81801;SDS011;71199;52.490;5.448;2023-08-06T08:34:04;17.70;;;12.27;;
81801;SDS011;71199;52.490;5.448;2023-08-06T08:36:30;22.67;;;12.05;;
81801;SDS011;71199;52.490;5.448;2023-08-06T08:38:55;16.20;;;11.60;;
81801;SDS011;71199;52.490;5.448;2023-08-06T08:41:21;20.55;;;12.23;;
81801;SDS011;71199;52.490;5.448;2023-08-06T08:43:47;15.43;;;12.02;;
81801;SDS011;71199;52.490;5.448;2023-08-06T08:46:17;16.02;;;11.48;;
81801;SDS011;71199;52.490;5.448;2023-08-06T08:48:44;14.30;;;10.90;;
81801;SDS011;71199;52.490;5.448;2023-08-06T08:51:10;15.50;;;11.55;;
81801;SDS011;71199;52.490;5.448;2023-08-06T08:53:37;17.08;;;11.52;;
81801;SDS011;71199;52.490;5.448;2023-08-06T08:56:04;14.10;;;10.63;;
81801;SDS011;71199;52.490;5.448;2023-08-06T08:58:30;17.20;;;11.52;;
81801;SDS011;71199;52.490;5.448;2023-08-06T09:00:56;17.75;;;12.38;;
81801;SDS011;71199;52.490;5.448;2023-08-06T09:03:22;14.52;;;10.85;;
81801;SDS011;71199;52.490;5.448;2023-08-06T09:05:49;15.25;;;11.23;;
81801;SDS011;71199;52.490;5.448;2023-08-06T09:08:18;13.70;;;10.40;;
81801;SDS011;71199;52.490;5.448;2023-08-06T09:10:47;15.23;;;10.57;;
81801;SDS011;71199;52.490;5.448;2023-08-06T09:13:13;13.35;;;10.30;;
81801;SDS011;71199;52.490;5.448;2023-08-06T09:15:39;16.60;;;11.13;;
81801;SDS011;71199;52.490;5.448;2023-08-06T09:18:10;18.83;;;12.00;;
81801;SDS011;71199;52.490;5.448;2023-08-06T09:20:39;16.55;;;12.30;;
81801;SDS011;71199;52.490;5.448;2023-08-06T09:23:08;17.60;;;11.45;;
81801;SDS011;71199;52.490;5.448;2023-08-06T09:25:39;14.50;;;10.98;;
81801;SDS011;71199;52.490;5.448;2023-08-06T09:28:05;15.02;;;11.70;;
81801;SDS011;71199;52.490;5.448;2023-08-06T09:30:32;18.35;;;11.55;;
81801;SDS011;71199;52.490;5.448;2023-08-06T09:32:59;15.30;;;10.88;;
81801;SDS011;71199;52.490;5.448;2023-08-06T09:35:28;17.08;;;11.25;;
81801;SDS011;71199;52.490;5.448;2023-08-06T09:37:55;15.70;;;10.63;;
81801;SDS011;71199;52.490;5.448;2023-08-06T09:42:53;13.35;;;9.40;;
81801;SDS011;71199;52.490;5.448;2023-08-06T09:45:19;14.75;;;9.80;;
81801;SDS011;71199;52.490;5.448;2023-08-06T09:47:44;13.40;;;9.55;;
81801;SDS011;71199;52.490;5.448;2023-08-06T09:50:19;14.70;;;9.40;;
81801;SDS011;71199;52.490;5.448;2023-08-06T09:52:46;14.10;;;9.23;;
81801;SDS011;71199;52.490;5.448;2023-08-06T09:55:13;12.77;;;8.80;;
81801;SDS011;71199;52.490;5.448;2023-08-06T09:57:40;14.30;;;9.10;;
81801;SDS011;71199;52.490;5.448;2023-08-06T10:00:07;11.60;;;8.45;;
81801;SDS011;71199;52.490;5.448;2023-08-06T10:02:40;14.10;;;8.50;;
81801;SDS011;71199;52.490;5.448;2023-08-06T10:05:06;11.90;;;7.90;;
81801;SDS011;71199;52.490;5.448;2023-08-06T10:07:33;11.25;;;8.13;;
81801;SDS011;71199;52.490;5.448;2023-08-06T10:09:59;15.68;;;8.85;;
81801;SDS011;71199;52.490;5.448;2023-08-06T10:12:25;10.32;;;7.50;;
81801;SDS011;71199;52.490;5.448;2023-08-06T10:14:54;10.75;;;8.13;;
81801;SDS011;71199;52.490;5.448;2023-08-06T10:17:22;10.95;;;7.10;;
81801;SDS011;71199;52.490;5.448;2023-08-06T10:19:48;5.50;;;3.40;;
81801;SDS011;71199;52.490;5.448;2023-08-06T10:22:16;3.80;;;2.78;;
81801;SDS011;71199;52.490;5.448;2023-08-06T10:24:51;3.70;;;2.40;;
81801;SDS011;71199;52.490;5.448;2023-08-06T10:29:46;4.82;;;2.17;;
81801;SDS011;71199;52.490;5.448;2023-08-06T10:32:12;3.95;;;2.65;;
81801;SDS011;71199;52.490;5.448;2023-08-06T10:34:52;6.40;;;2.67;;
81801;SDS011;71199;52.490;5.448;2023-08-06T10:37:22;4.70;;;2.70;;
81801;SDS011;71199;52.490;5.448;2023-08-06T10:39:51;6.45;;;2.90;;
81801;SDS011;71199;52.490;5.448;2023-08-06T10:42:50;3.88;;;2.80;;
81801;SDS011;71199;52.490;5.448;2023-08-06T10:45:15;3.65;;;2.33;;
81801;SDS011;71199;52.490;5.448;2023-08-06T10:47:42;5.75;;;2.85;;
81801;SDS011;71199;52.490;5.448;2023-08-06T10:52:36;4.57;;;2.30;;
81801;SDS011;71199;52.490;5.448;2023-08-06T10:55:02;5.65;;;3.05;;
81801;SDS011;71199;52.490;5.448;2023-08-06T10:57:27;5.90;;;2.60;;
81801;SDS011;71199;52.490;5.448;2023-08-06T10:59:53;4.68;;;2.50;;
81801;SDS011;71199;52.490;5.448;2023-08-06T11:02:18;6.03;;;3.10;;
81801;SDS011;71199;52.490;5.448;2023-08-06T11:04:43;8.02;;;3.17;;
81801;SDS011;71199;52.490;5.448;2023-08-06T11:07:09;7.10;;;3.07;;
81801;SDS011;71199;52.490;5.448;2023-08-06T11:09:35;5.55;;;3.20;;
81801;SDS011;71199;52.490;5.448;2023-08-06T11:12:00;8.43;;;3.40;;
81801;SDS011;71199;52.490;5.448;2023-08-06T11:14:26;7.22;;;3.85;;
81801;SDS011;71199;52.490;5.448;2023-08-06T11:16:51;7.40;;;4.38;;
81801;SDS011;71199;52.490;5.448;2023-08-06T11:19:17;9.10;;;4.22;;
81801;SDS011;71199;52.490;5.448;2023-08-06T11:21:43;5.03;;;3.38;;
81801;SDS011;71199;52.490;5.448;2023-08-06T11:24:11;5.68;;;3.20;;
81801;SDS011;71199;52.490;5.448;2023-08-06T11:26:37;9.23;;;3.35;;
81801;SDS011;71199;52.490;5.448;2023-08-06T11:29:05;5.57;;;2.70;;
81801;SDS011;71199;52.490;5.448;2023-08-06T11:31:30;5.75;;;2.75;;
81801;SDS011;71199;52.490;5.448;2023-08-06T11:33:56;5.88;;;3.15;;
81801;SDS011;71199;52.490;5.448;2023-08-06T11:36:31;3.67;;;2.38;;
81801;SDS011;71199;52.490;5.448;2023-08-06T11:38:58;4.20;;;2.22;;
81801;SDS011;71199;52.490;5.448;2023-08-06T11:41:28;5.07;;;2.67;;
81801;SDS011;71199;52.490;5.448;2023-08-06T11:43:54;6.18;;;2.90;;
81801;SDS011;71199;52.490;5.448;2023-08-06T11:46:19;4.88;;;3.03;;
81801;SDS011;71199;52.490;5.448;2023-08-06T11:48:52;5.57;;;2.95;;
81801;SDS011;71199;52.490;5.448;2023-08-06T11:51:23;6.18;;;3.25;;
81801;SDS011;71199;52.490;5.448;2023-08-06T11:53:51;5.15;;;3.13;;
81801;SDS011;71199;52.490;5.448;2023-08-06T11:56:20;5.55;;;3.58;;
81801;SDS011;71199;52.490;5.448;2023-08-06T11:58:45;5.60;;;3.13;;
81801;SDS011;71199;52.490;5.448;2023-08-06T12:01:10;5.13;;;3.17;;
81801;SDS011;71199;52.490;5.448;2023-08-06T12:03:39;5.00;;;3.07;;
81801;SDS011;71199;52.490;5.448;2023-08-06T12:06:05;4.65;;;2.92;;
81801;SDS011;71199;52.490;5.448;2023-08-06T12:08:32;5.00;;;3.03;;
81801;SDS011;71199;52.490;5.448;2023-08-06T12:10:57;4.75;;;3.30;;
81801;SDS011;71199;52.490;5.448;2023-08-06T12:13:23;6.13;;;2.92;;
81801;SDS011;71199;52.490;5.448;2023-08-06T12:15:48;5.07;;;2.97;;
81801;SDS011;71199;52.490;5.448;2023-08-06T12:18:14;4.22;;;2.80;;
81801;SDS011;71199;52.490;5.448;2023-08-06T12:20:39;8.40;;;2.85;;
81801;SDS011;71199;52.490;5.448;2023-08-06T12:23:05;5.43;;;3.22;;
81801;SDS011;71199;52.490;5.448;2023-08-06T12:25:30;5.37;;;2.77;;
81801;SDS011;71199;52.490;5.448;2023-08-06T12:27:56;6.22;;;2.58;;
81801;SDS011;71199;52.490;5.448;2023-08-06T12:30:21;11.02;;;3.58;;
81801;SDS011;71199;52.490;5.448;2023-08-06T12:32:46;6.43;;;3.10;;
81801;SDS011;71199;52.490;5.448;2023-08-06T12:35:12;5.28;;;2.85;;
81801;SDS011;71199;52.490;5.448;2023-08-06T12:37:39;5.35;;;2.70;;
81801;SDS011;71199;52.490;5.448;2023-08-06T12:40:04;4.15;;;2.45;;
81801;SDS011;71199;52.490;5.448;2023-08-06T12:42:30;6.53;;;2.75;;
81801;SDS011;71199;52.490;5.448;2023-08-06T12:44:56;6.38;;;2.97;;
81801;SDS011;71199;52.490;5.448;2023-08-06T12:47:21;6.47;;;2.70;;
81801;SDS011;71199;52.490;5.448;2023-08-06T12:49:46;6.03;;;2.97;;
81801;SDS011;71199;52.490;5.448;2023-08-06T12:52:12;6.17;;;2.50;;
81801;SDS011;71199;52.490;5.448;2023-08-06T12:54:40;5.32;;;2.90;;
81801;SDS011;71199;52.490;5.448;2023-08-06T12:57:06;4.60;;;3.10;;
81801;SDS011;71199;52.490;5.448;2023-08-06T12:59:32;7.80;;;2.90;;
81801;SDS011;71199;52.490;5.448;2023-08-06T13:01:58;5.07;;;2.80;;
81801;SDS011;71199;52.490;5.448;2023-08-06T13:04:24;5.78;;;3.15;;
81801;SDS011;71199;52.490;5.448;2023-08-06T13:06:49;4.85;;;2.92;;
81801;SDS011;71199;52.490;5.448;2023-08-06T13:09:15;5.70;;;2.53;;
81801;SDS011;71199;52.490;5.448;2023-08-06T13:11:41;4.25;;;2.38;;
81801;SDS011;71199;52.490;5.448;2023-08-06T13:14:10;4.00;;;2.80;;
81801;SDS011;71199;52.490;5.448;2023-08-06T13:16:38;3.97;;;2.42;;
81801;SDS011;71199;52.490;5.448;2023-08-06T13:19:05;5.22;;;2.60;;
81801;SDS011;71199;52.490;5.448;2023-08-06T13:24:03;5.45;;;2.38;;
81801;SDS011;71199;52.490;5.448;2023-08-06T13:26:29;4.90;;;2.13;;
81801;SDS011;71199;52.490;5.448;2023-08-06T13:28:56;4.60;;;2.65;;
81801;SDS011;71199;52.490;5.448;2023-08-06T13:31:22;5.07;;;2.42;;
81801;SDS011;71199;52.490;5.448;2023-08-06T13:33:48;4.80;;;2.47;;
81801;SDS011;71199;52.490;5.448;2023-08-06T13:36:14;4.53;;;2.53;;
81801;SDS011;71199;52.490;5.448;2023-08-06T13:38:41;4.63;;;2.20;;
81801;SDS011;71199;52.490;5.448;2023-08-06T13:41:06;4.83;;;2.67;;
81801;SDS011;71199;52.490;5.448;2023-08-06T13:43:31;6.25;;;3.05;;
81801;SDS011;71199;52.490;5.448;2023-08-06T13:45:57;4.20;;;2.23;;
81801;SDS011;71199;52.490;5.448;2023-08-06T13:48:22;4.95;;;2.50;;
81801;SDS011;71199;52.490;5.448;2023-08-06T13:50:48;3.85;;;2.25;;
81801;SDS011;71199;52.490;5.448;2023-08-06T13:53:13;4.13;;;2.40;;
81801;SDS011;71199;52.490;5.448;2023-08-06T13:55:39;4.73;;;2.90;;
81801;SDS011;71199;52.490;5.448;2023-08-06T13:58:04;4.00;;;2.47;;
81801;SDS011;71199;52.490;5.448;2023-08-06T14:00:29;11.03;;;3.23;;
81801;SDS011;71199;52.490;5.448;2023-08-06T14:02:55;4.78;;;2.65;;
81801;SDS011;71199;52.490;5.448;2023-08-06T14:05:20;4.28;;;2.47;;
81801;SDS011;71199;52.490;5.448;2023-08-06T14:07:46;6.10;;;2.80;;
81801;SDS011;71199;52.490;5.448;2023-08-06T14:10:11;4.28;;;2.55;;
81801;SDS011;71199;52.490;5.448;2023-08-06T14:12:37;4.07;;;2.53;;
81801;SDS011;71199;52.490;5.448;2023-08-06T14:15:02;3.63;;;2.63;;
81801;SDS011;71199;52.490;5.448;2023-08-06T14:17:28;3.63;;;2.22;;
81801;SDS011;71199;52.490;5.448;2023-08-06T14:19:54;5.50;;;3.33;;
81801;SDS011;71199;52.490;5.448;2023-08-06T14:22:19;4.33;;;2.60;;
81801;SDS011;71199;52.490;5.448;2023-08-06T14:24:44;5.33;;;2.63;;
81801;SDS011;71199;52.490;5.448;2023-08-06T14:27:12;5.20;;;2.20;;
81801;SDS011;71199;52.490;5.448;2023-08-06T14:29:37;4.60;;;2.50;;
81801;SDS011;71199;52.490;5.448;2023-08-06T14:32:03;4.50;;;2.50;;
81801;SDS011;71199;52.490;5.448;2023-08-06T14:34:28;4.28;;;2.40;;
81801;SDS011;71199;52.490;5.448;2023-08-06T14:36:54;5.10;;;2.77;;
81801;SDS011;71199;52.490;5.448;2023-08-06T14:39:19;4.47;;;2.70;;
81801;SDS011;71199;52.490;5.448;2023-08-06T14:41:44;5.40;;;2.43;;
81801;SDS011;71199;52.490;5.448;2023-08-06T14:44:10;4.57;;;2.33;;